South Worthington, Massachusetts
Current Conditions -  °F | °C
As of 2:53 PM on Friday 28 Nov 2014 (Local Time) from KBAF Reporting Station
Few Clouds Few Clouds  
Wind Chill: 24°   Ceiling: Unl
Heat Index: 32°   Visibility: 10mi
Dew Point: 18°   Wind: 9mph
Humidity: 56%   Direction: 330°NNW
Pressure: 30.11"   Gusts: NA
Location:  42.3047°N, 72.879°W
Report Text: KBAF 281953Z 33008KT 10SM FEW037 00/M08 A3011 RMK AO2 SLP202 T00001078
Loading
Personal Weather Stations






























Interactive Weather Map New forecast layout! Learn more

10-Day Weather Forecast

Advertisements
Track Severe Weather on mobile